createdAt,value
2023-03-11T00:00:31.933Z,83.24
2023-03-11T00:03:00.838Z,83.59
2023-03-11T00:05:33.828Z,84.28
2023-03-11T00:08:02.440Z,83.87
2023-03-11T00:10:32.380Z,84.11
2023-03-11T00:13:00.861Z,85.09
2023-03-11T00:15:29.501Z,83.85
2023-03-11T00:17:57.557Z,83.10
2023-03-11T00:20:26.687Z,83.09
2023-03-11T00:22:55.162Z,83.34
2023-03-11T00:25:23.790Z,83.53
2023-03-11T00:27:51.731Z,84.89
2023-03-11T00:30:20.046Z,84.87
2023-03-11T00:32:51.849Z,83.93
2023-03-11T00:35:44.245Z,84.83
2023-03-11T00:38:16.613Z,84.48
2023-03-11T00:40:45.355Z,86.12
2023-03-11T00:43:13.338Z,85.92
2023-03-11T00:45:41.204Z,85.70
2023-03-11T00:48:09.643Z,85.95
2023-03-11T00:50:38.130Z,86.10
2023-03-11T00:53:06.350Z,85.86
2023-03-11T00:55:35.552Z,85.88
2023-03-11T00:58:05.319Z,86.71
2023-03-11T01:00:33.175Z,85.71
2023-03-11T01:03:01.021Z,85.59
2023-03-11T01:05:30.897Z,85.08
2023-03-11T01:07:59.015Z,86.08
2023-03-11T01:10:26.987Z,86.06
2023-03-11T01:12:54.971Z,85.69
2023-03-11T01:15:28.419Z,85.57
2023-03-11T01:17:56.266Z,86.32
2023-03-11T01:20:24.149Z,86.07
2023-03-11T01:22:52.131Z,86.19
2023-03-11T01:25:20.799Z,86.85
2023-03-11T01:27:49.227Z,87.93
2023-03-11T01:30:26.301Z,86.15
2023-03-11T01:32:54.568Z,86.41
2023-03-11T01:35:36.598Z,86.16
2023-03-11T01:38:13.579Z,86.79
2023-03-11T01:40:49.577Z,86.93
2023-03-11T01:43:42.265Z,86.22
2023-03-11T01:46:11.880Z,87.85
2023-03-11T01:48:40.087Z,85.95
2023-03-11T01:51:08.058Z,85.72
2023-03-11T01:53:36.083Z,86.32
2023-03-11T01:56:05.244Z,86.49
2023-03-11T01:58:35.812Z,86.34
2023-03-11T02:01:03.808Z,87.75
2023-03-11T02:03:36.600Z,88.61
2023-03-11T02:06:05.542Z,87.53
2023-03-11T02:08:35.391Z,85.99
2023-03-11T02:11:04.535Z,85.79
2023-03-11T02:13:34.961Z,86.32
2023-03-11T02:16:04.041Z,85.26
2023-03-11T02:18:31.848Z,84.24
2023-03-11T02:21:07.244Z,84.17
2023-03-11T02:23:49.300Z,83.38
2023-03-11T02:26:21.324Z,84.43
2023-03-11T02:28:49.291Z,83.62
2023-03-11T02:31:17.429Z,84.10
2023-03-11T02:33:45.481Z,83.86
2023-03-11T02:36:36.705Z,83.37
2023-03-11T02:39:05.083Z,83.80
2023-03-11T02:41:34.393Z,83.89
2023-03-11T02:44:02.433Z,82.58
2023-03-11T02:46:30.408Z,81.95
2023-03-11T02:48:58.292Z,81.78
2023-03-11T02:51:26.190Z,80.95
2023-03-11T02:53:56.362Z,80.15
2023-03-11T02:56:24.251Z,78.97
2023-03-11T02:58:52.070Z,79.03
2023-03-11T03:01:20.016Z,79.23
2023-03-11T03:03:47.971Z,79.15
2023-03-11T03:06:15.895Z,79.44
2023-03-11T03:08:43.767Z,79.87
2023-03-11T03:11:11.642Z,80.39
2023-03-11T03:13:39.520Z,79.57
2023-03-11T03:16:07.633Z,80.16
2023-03-11T03:18:35.542Z,80.93
2023-03-11T03:21:03.403Z,80.87
2023-03-11T03:23:31.277Z,80.77
2023-03-11T03:25:59.855Z,81.41
2023-03-11T03:28:27.657Z,80.42
2023-03-11T03:30:55.924Z,78.22
2023-03-11T03:33:23.767Z,79.26
2023-03-11T03:35:52.424Z,78.81
2023-03-11T03:38:20.408Z,78.22
2023-03-11T03:40:49.094Z,78.42
2023-03-11T03:43:16.920Z,79.20
2023-03-11T03:46:04.462Z,78.42
2023-03-11T03:48:32.427Z,76.62
2023-03-11T03:51:11.388Z,76.94
2023-03-11T03:53:39.382Z,76.55
2023-03-11T03:56:08.313Z,75.78
2023-03-11T03:58:36.182Z,76.50
2023-03-11T04:01:05.334Z,76.35
2023-03-11T04:03:33.413Z,77.13
2023-03-11T04:06:08.512Z,76.90
2023-03-11T04:08:36.331Z,77.66
2023-03-11T04:11:04.289Z,76.67
2023-03-11T04:13:32.235Z,77.19
2023-03-11T04:16:00.284Z,75.69
2023-03-11T04:18:28.379Z,75.82
2023-03-11T04:20:56.346Z,76.52
2023-03-11T04:23:24.215Z,76.34
2023-03-11T04:25:52.435Z,76.82
2023-03-11T04:28:21.480Z,76.17
2023-03-11T04:30:49.348Z,74.19
2023-03-11T04:33:17.261Z,74.86
2023-03-11T04:35:45.094Z,74.86
2023-03-11T04:38:13.135Z,75.20
2023-03-11T04:40:40.947Z,74.45
2023-03-11T04:43:08.793Z,74.82
2023-03-11T04:45:39.119Z,75.00
2023-03-11T04:48:06.984Z,75.51
2023-03-11T04:50:34.906Z,74.71
2023-03-11T04:53:02.727Z,75.40
2023-03-11T04:55:30.567Z,76.15
2023-03-11T04:57:58.332Z,74.65
2023-03-11T05:00:26.303Z,75.57
2023-03-11T05:02:54.162Z,74.67
2023-03-11T05:05:22.287Z,73.76
2023-03-11T05:07:50.326Z,74.29
2023-03-11T05:10:23.501Z,73.92
2023-03-11T05:12:52.548Z,72.98
2023-03-11T05:15:20.543Z,73.73
2023-03-11T05:17:48.433Z,73.62
2023-03-11T05:20:16.608Z,73.57
2023-03-11T05:22:44.485Z,73.08
2023-03-11T05:25:25.611Z,73.04
2023-03-11T05:27:54.044Z,73.50
2023-03-11T05:30:21.959Z,72.88
2023-03-11T05:32:50.302Z,73.04
2023-03-11T05:35:18.389Z,72.65
2023-03-11T05:37:46.768Z,73.03
2023-03-11T05:40:15.165Z,73.20
2023-03-11T05:42:43.112Z,73.97
2023-03-11T05:45:11.539Z,73.99
2023-03-11T05:47:39.461Z,73.34
2023-03-11T05:50:07.991Z,73.99
2023-03-11T05:52:35.915Z,73.86
2023-03-11T05:55:03.781Z,74.00
2023-03-11T05:57:31.708Z,74.40
2023-03-11T05:59:59.473Z,73.64
2023-03-11T06:02:27.337Z,74.69
2023-03-11T06:04:55.308Z,72.65
2023-03-11T06:07:23.207Z,72.39
2023-03-11T06:09:51.691Z,73.10
2023-03-11T06:12:19.489Z,72.14
2023-03-11T06:14:47.440Z,72.55
2023-03-11T06:17:15.280Z,73.05
2023-03-11T06:19:43.126Z,72.81
2023-03-11T06:22:10.962Z,73.34
2023-03-11T06:24:38.894Z,72.53
2023-03-11T06:27:06.726Z,72.95
2023-03-11T06:29:34.622Z,72.56
2023-03-11T06:32:02.376Z,72.52
2023-03-11T06:34:30.308Z,72.51
2023-03-11T06:36:58.595Z,73.13
2023-03-11T06:39:26.551Z,69.81
2023-03-11T06:41:54.443Z,71.29
2023-03-11T06:44:22.296Z,70.43
2023-03-11T06:46:50.235Z,71.19
2023-03-11T06:49:18.133Z,71.36
2023-03-11T06:51:45.990Z,71.18
2023-03-11T06:54:14.002Z,71.06
2023-03-11T06:56:41.765Z,71.14
2023-03-11T06:59:09.715Z,72.28
2023-03-11T07:01:37.863Z,71.60
2023-03-11T07:04:05.904Z,71.32
2023-03-11T07:06:33.731Z,73.99
2023-03-11T07:09:01.714Z,70.23
2023-03-11T07:11:29.597Z,69.87
2023-03-11T07:13:57.447Z,69.72
2023-03-11T07:16:27.289Z,70.69
2023-03-11T07:18:57.397Z,69.43
2023-03-11T07:21:25.342Z,69.77
2023-03-11T07:23:56.895Z,69.67
2023-03-11T07:26:25.196Z,70.45
2023-03-11T07:28:53.973Z,68.56
2023-03-11T07:31:42.641Z,81.21
2023-03-11T07:34:13.046Z,95.90
2023-03-11T07:36:41.937Z,82.53
2023-03-11T07:39:11.872Z,76.78
2023-03-11T07:41:39.681Z,75.90
2023-03-11T07:44:09.838Z,66.61
2023-03-11T07:46:37.727Z,64.91
2023-03-11T07:49:05.658Z,64.89
2023-03-11T07:51:34.717Z,66.30
2023-03-11T07:54:06.037Z,65.29
2023-03-11T07:56:34.990Z,66.67
2023-03-11T07:59:03.628Z,67.85
2023-03-11T08:01:37.332Z,68.21
2023-03-11T08:04:06.268Z,66.64
2023-03-11T08:06:34.872Z,69.10
2023-03-11T08:09:05.125Z,68.57
2023-03-11T08:11:33.064Z,68.57
2023-03-11T08:14:01.046Z,70.09
2023-03-11T08:16:29.117Z,70.06
2023-03-11T08:18:57.170Z,69.79
2023-03-11T08:21:26.764Z,68.71
2023-03-11T08:23:55.600Z,67.98
2023-03-11T08:26:23.526Z,66.88
2023-03-11T08:28:51.360Z,66.54
2023-03-11T08:31:25.303Z,66.54
2023-03-11T08:33:54.618Z,66.10
2023-03-11T08:36:22.699Z,63.95
2023-03-11T08:38:50.751Z,62.44
2023-03-11T08:41:18.716Z,63.13
2023-03-11T08:43:46.814Z,62.53
2023-03-11T08:46:25.461Z,63.88
2023-03-11T08:48:53.876Z,60.99
2023-03-11T08:51:21.775Z,62.15
2023-03-11T08:53:49.697Z,59.71
2023-03-11T08:56:17.915Z,61.69
2023-03-11T08:58:45.986Z,61.36
2023-03-11T09:01:14.439Z,61.72
2023-03-11T09:03:42.488Z,61.58
2023-03-11T09:06:12.681Z,62.26
2023-03-11T09:08:40.657Z,63.66
2023-03-11T09:11:09.598Z,62.02
2023-03-11T09:13:37.710Z,61.10
2023-03-11T09:16:07.131Z,58.66
2023-03-11T09:18:35.048Z,59.11
2023-03-11T09:21:03.162Z,59.56
2023-03-11T09:23:33.067Z,58.83
2023-03-11T09:26:01.040Z,57.82
2023-03-11T09:28:29.346Z,58.12
2023-03-11T09:30:57.791Z,57.89
2023-03-11T09:33:29.515Z,56.72
2023-03-11T09:35:58.575Z,56.45
2023-03-11T09:38:26.530Z,57.36
2023-03-11T09:41:20.687Z,57.59
2023-03-11T09:44:03.698Z,57.71
2023-03-11T09:46:43.770Z,58.43
2023-03-11T09:49:17.974Z,59.62
2023-03-11T09:51:49.060Z,58.99
2023-03-11T09:54:17.160Z,56.95
2023-03-11T09:56:45.175Z,58.77
2023-03-11T09:59:22.570Z,56.83
2023-03-11T10:01:50.581Z,57.79
2023-03-11T10:04:21.617Z,58.57
2023-03-11T10:06:49.674Z,58.57
2023-03-11T10:09:17.509Z,57.99
2023-03-11T10:12:19.535Z,54.70
2023-03-11T10:14:54.326Z,52.63
2023-03-11T10:17:25.258Z,58.02
2023-03-11T10:20:09.597Z,55.23
2023-03-11T10:22:53.010Z,54.74
2023-03-11T10:25:31.387Z,54.42
2023-03-11T10:28:18.813Z,55.38
2023-03-11T10:30:57.996Z,54.46
2023-03-11T10:33:47.751Z,50.00
2023-03-11T10:36:20.377Z,52.17
2023-03-11T10:38:49.522Z,53.68
2023-03-11T10:41:32.288Z,52.77
2023-03-11T10:47:05.478Z,50.69
2023-03-11T10:49:33.558Z,44.90
2023-03-11T10:52:01.422Z,47.83
2023-03-11T10:54:30.429Z,44.91
2023-03-11T10:57:00.915Z,45.94
2023-03-11T10:59:34.050Z,44.85
2023-03-11T11:02:28.043Z,47.55
2023-03-11T11:05:04.979Z,45.38
2023-03-11T11:07:37.528Z,46.13
2023-03-11T11:10:25.601Z,47.28
2023-03-11T11:13:00.078Z,48.75
2023-03-11T11:15:32.094Z,47.26
2023-03-11T11:18:08.693Z,46.70
2023-03-11T11:20:36.660Z,45.24
2023-03-11T11:23:05.059Z,46.13
2023-03-11T11:25:40.465Z,49.16
2023-03-11T11:28:22.007Z,48.11
2023-03-11T11:31:01.102Z,48.22
2023-03-11T11:33:33.814Z,47.54
2023-03-11T11:36:04.402Z,47.14
2023-03-11T11:38:33.474Z,46.60
2023-03-11T11:41:04.011Z,46.33
2023-03-11T11:43:50.191Z,45.75
2023-03-11T11:46:31.535Z,45.62
2023-03-11T11:49:19.500Z,46.96
2023-03-11T11:51:52.022Z,48.30
2023-03-11T11:54:41.874Z,46.89
2023-03-11T11:57:16.378Z,51.67
2023-03-11T11:59:44.988Z,47.26
2023-03-11T12:02:32.640Z,48.06
2023-03-11T12:05:37.271Z,48.43
2023-03-11T12:08:11.364Z,45.92
2023-03-11T12:10:53.897Z,47.47
2023-03-11T12:13:45.016Z,46.66
2023-03-11T12:16:36.836Z,44.56
2023-03-11T12:19:11.595Z,44.19
2023-03-11T12:21:39.418Z,47.01
2023-03-11T12:24:36.500Z,47.05
2023-03-11T12:27:08.626Z,46.75
2023-03-11T12:29:43.238Z,48.12
2023-03-11T12:32:12.252Z,48.45
2023-03-11T12:34:40.252Z,45.18
2023-03-11T12:37:14.781Z,48.27
2023-03-11T12:39:42.779Z,47.55
2023-03-11T12:42:27.767Z,51.24
2023-03-11T12:44:56.126Z,49.43
2023-03-11T12:47:30.381Z,51.29
2023-03-11T12:50:36.647Z,51.26
2023-03-11T12:53:05.079Z,52.17
2023-03-11T12:55:34.926Z,50.34
2023-03-11T12:58:33.198Z,51.14
2023-03-11T13:01:11.994Z,53.68
2023-03-11T13:03:49.168Z,52.81
2023-03-11T13:06:27.080Z,55.36
2023-03-11T13:08:58.385Z,54.26
2023-03-11T13:11:35.484Z,53.93
2023-03-11T13:14:35.523Z,54.83
2023-03-11T13:17:26.837Z,56.77
2023-03-11T13:19:58.653Z,55.06
2023-03-11T13:22:59.202Z,53.97
2023-03-11T13:25:28.030Z,53.86
2023-03-11T13:27:59.956Z,55.77
2023-03-11T13:30:27.830Z,54.77
2023-03-11T13:33:18.479Z,56.39
2023-03-11T13:36:03.975Z,56.33
2023-03-11T13:38:41.212Z,56.18
2023-03-11T13:41:32.996Z,57.34
2023-03-11T13:44:07.505Z,57.20
2023-03-11T13:46:39.611Z,57.11
2023-03-11T13:49:25.504Z,57.73
2023-03-11T13:51:53.321Z,56.79
2023-03-11T13:54:49.828Z,57.08
2023-03-11T13:57:25.382Z,58.86
2023-03-11T13:59:55.214Z,59.78
2023-03-11T14:02:27.886Z,58.54
2023-03-11T14:04:59.369Z,56.55
2023-03-11T14:07:32.839Z,57.87
2023-03-11T14:10:13.587Z,59.36
2023-03-11T14:12:41.397Z,58.15
2023-03-11T14:15:09.952Z,58.95
2023-03-11T14:17:37.867Z,58.18
2023-03-11T14:20:18.760Z,57.91
2023-03-11T14:22:48.078Z,57.96
2023-03-11T14:25:29.512Z,58.82
2023-03-11T14:27:59.097Z,58.97
2023-03-11T14:30:29.112Z,59.42
2023-03-11T14:33:03.540Z,59.27
2023-03-11T14:35:32.756Z,60.01
2023-03-11T14:38:01.196Z,59.20
2023-03-11T14:40:37.856Z,58.83
2023-03-11T14:43:07.591Z,57.96
2023-03-11T14:45:38.523Z,57.35
2023-03-11T14:48:30.939Z,56.86
2023-03-11T14:51:00.095Z,55.51
2023-03-11T14:53:28.798Z,57.39
2023-03-11T14:56:08.064Z,57.18
2023-03-11T14:58:37.031Z,57.84
2023-03-11T15:01:11.046Z,59.56
2023-03-11T15:03:41.101Z,60.68
2023-03-11T15:06:15.752Z,61.64
2023-03-11T15:08:53.816Z,62.07
2023-03-11T15:11:26.507Z,64.61
2023-03-11T15:13:54.468Z,64.32
2023-03-11T15:16:42.791Z,65.31
2023-03-11T15:19:29.008Z,66.19
2023-03-11T15:22:07.116Z,66.32
2023-03-11T15:24:35.153Z,67.48
2023-03-11T15:27:07.924Z,68.17
2023-03-11T15:29:36.383Z,68.28
2023-03-11T15:32:27.007Z,68.23
2023-03-11T15:35:11.811Z,68.83
2023-03-11T15:37:40.397Z,69.04
2023-03-11T15:40:35.272Z,69.53
2023-03-11T15:43:16.290Z,70.54
2023-03-11T15:45:44.760Z,69.60
2023-03-11T15:48:13.367Z,70.50
2023-03-11T15:50:57.986Z,71.85
2023-03-11T15:53:26.567Z,71.74
2023-03-11T15:55:55.756Z,71.96
2023-03-11T15:58:23.720Z,73.25
2023-03-11T16:00:53.761Z,73.31
2023-03-11T16:03:21.694Z,73.79
2023-03-11T16:05:49.734Z,75.19
2023-03-11T16:08:17.679Z,75.54
2023-03-11T16:10:45.561Z,76.12
2023-03-11T16:13:14.459Z,77.31
2023-03-11T16:15:43.352Z,76.37
2023-03-11T16:18:11.352Z,76.32
2023-03-11T16:20:51.724Z,76.68
2023-03-11T16:23:21.708Z,78.46
2023-03-11T16:25:49.754Z,76.43
2023-03-11T16:28:18.019Z,76.83
2023-03-11T16:30:45.992Z,77.12
2023-03-11T16:33:14.014Z,78.29
2023-03-11T16:35:42.041Z,78.59
2023-03-11T16:38:10.045Z,78.73
2023-03-11T16:40:38.203Z,78.68
2023-03-11T16:43:13.900Z,78.99
2023-03-11T16:45:41.850Z,80.51
2023-03-11T16:48:09.853Z,80.00
2023-03-11T16:50:37.863Z,80.17
2023-03-11T16:53:06.247Z,80.03
2023-03-11T16:55:34.277Z,80.90
2023-03-11T16:58:02.155Z,81.59
2023-03-11T17:00:30.334Z,80.64
2023-03-11T17:02:58.204Z,81.04
2023-03-11T17:05:26.189Z,81.34
2023-03-11T17:07:55.859Z,81.64
2023-03-11T17:10:25.774Z,81.38
2023-03-11T17:12:53.828Z,82.05
2023-03-11T17:15:22.003Z,81.89
2023-03-11T17:17:51.012Z,81.94
2023-03-11T17:20:21.488Z,83.66
2023-03-11T17:22:49.807Z,83.25
2023-03-11T17:25:17.910Z,83.41
2023-03-11T17:27:45.798Z,82.67
2023-03-11T17:30:19.387Z,83.07
2023-03-11T17:32:52.468Z,83.19
2023-03-11T17:35:20.589Z,84.94
2023-03-11T17:37:48.805Z,85.60
2023-03-11T17:40:21.208Z,85.11
2023-03-11T17:42:49.106Z,85.63
2023-03-11T17:45:17.168Z,87.11
2023-03-11T17:47:45.348Z,84.07
2023-03-11T17:50:13.910Z,85.00
2023-03-11T17:52:42.029Z,85.65
2023-03-11T17:55:10.664Z,85.55
2023-03-11T17:57:45.601Z,85.31
2023-03-11T18:00:15.931Z,86.43
2023-03-11T18:02:43.963Z,84.99
2023-03-11T18:05:11.811Z,85.37
2023-03-11T18:07:40.337Z,85.45
2023-03-11T18:10:08.590Z,85.91
2023-03-11T18:12:36.510Z,86.11
2023-03-11T18:15:07.395Z,86.16
2023-03-11T18:17:38.300Z,85.06
2023-03-11T18:20:07.039Z,85.66
2023-03-11T18:22:35.650Z,85.71
2023-03-11T18:25:06.552Z,86.45
2023-03-11T18:27:34.633Z,87.02
2023-03-11T18:30:03.201Z,87.00
2023-03-11T18:32:32.030Z,86.95
2023-03-11T18:34:59.970Z,87.29
2023-03-11T18:37:28.592Z,87.27
2023-03-11T18:39:56.608Z,87.45
2023-03-11T18:42:24.753Z,87.94
2023-03-11T18:44:52.784Z,87.88
2023-03-11T18:47:21.247Z,88.37
2023-03-11T18:49:49.325Z,87.82
2023-03-11T18:52:17.259Z,87.84
2023-03-11T18:54:46.186Z,87.70
2023-03-11T18:57:14.279Z,88.28
2023-03-11T18:59:42.229Z,87.90
2023-03-11T19:02:11.654Z,87.74
2023-03-11T19:04:39.671Z,87.50
2023-03-11T19:07:08.145Z,88.19
2023-03-11T19:09:36.151Z,86.87
2023-03-11T19:12:04.125Z,88.47
2023-03-11T19:14:32.020Z,87.87
2023-03-11T19:17:00.364Z,89.16
2023-03-11T19:19:28.590Z,88.97
2023-03-11T19:21:56.639Z,88.14
2023-03-11T19:24:24.640Z,87.60
2023-03-11T19:26:52.636Z,88.59
2023-03-11T19:29:21.234Z,88.14
2023-03-11T19:31:49.289Z,88.25
2023-03-11T19:34:17.644Z,87.54
2023-03-11T19:36:47.964Z,88.30
2023-03-11T19:42:15.340Z,88.34
2023-03-11T19:44:43.309Z,87.45
2023-03-11T19:47:11.495Z,88.18
2023-03-11T19:49:39.576Z,88.45
2023-03-11T19:52:10.902Z,87.75
2023-03-11T19:54:39.049Z,88.42
2023-03-11T19:57:07.107Z,88.46
2023-03-11T19:59:34.965Z,88.57
2023-03-11T20:02:04.340Z,88.59
2023-03-11T20:04:32.458Z,88.68
2023-03-11T20:07:00.756Z,88.30
2023-03-11T20:09:28.752Z,88.57
2023-03-11T20:11:57.574Z,88.80
2023-03-11T20:14:25.585Z,88.99
2023-03-11T20:16:53.867Z,89.09
2023-03-11T20:19:22.073Z,88.97
2023-03-11T20:21:50.266Z,89.08
2023-03-11T20:24:18.237Z,89.60
2023-03-11T20:26:46.318Z,87.90
2023-03-11T20:29:14.415Z,88.01
2023-03-11T20:31:42.898Z,87.79
2023-03-11T20:34:11.102Z,87.79
2023-03-11T20:36:39.271Z,88.83
2023-03-11T20:39:10.262Z,88.54
2023-03-11T20:41:39.716Z,88.18
2023-03-11T20:44:08.602Z,88.38
2023-03-11T20:46:36.817Z,88.31
2023-03-11T20:49:04.865Z,88.64
2023-03-11T20:51:32.714Z,88.65
2023-03-11T20:54:00.733Z,89.73
2023-03-11T20:56:28.787Z,89.50
2023-03-11T20:58:57.338Z,89.88
2023-03-11T21:01:27.379Z,90.20
2023-03-11T21:03:56.566Z,89.66
2023-03-11T21:06:26.380Z,90.55
2023-03-11T21:08:55.458Z,90.88
2023-03-11T21:11:24.072Z,90.69
2023-03-11T21:13:52.303Z,91.69
2023-03-11T21:16:20.452Z,90.71
2023-03-11T21:18:49.541Z,91.79
2023-03-11T21:21:18.215Z,92.40
2023-03-11T21:23:47.811Z,91.94
2023-03-11T21:26:16.711Z,92.47
2023-03-11T21:28:47.689Z,92.63
2023-03-11T21:31:20.564Z,92.55
2023-03-11T21:33:48.830Z,93.65
2023-03-11T21:36:17.444Z,92.93
2023-03-11T21:38:45.623Z,92.91
2023-03-11T21:41:18.559Z,93.56
2023-03-11T21:43:46.910Z,93.96
2023-03-11T21:46:17.296Z,94.81
2023-03-11T21:48:45.544Z,94.00
2023-03-11T21:51:13.977Z,93.66
2023-03-11T21:53:43.193Z,93.26
2023-03-11T21:56:11.458Z,93.54
2023-03-11T21:58:40.064Z,94.05
2023-03-11T22:01:08.796Z,93.91
2023-03-11T22:03:37.822Z,95.04
2023-03-11T22:06:10.704Z,94.32
2023-03-11T22:08:39.051Z,95.11
2023-03-11T22:11:11.750Z,94.70
2023-03-11T22:13:39.712Z,94.91
2023-03-11T22:16:08.277Z,94.88
2023-03-11T22:18:36.466Z,95.20
2023-03-11T22:21:04.780Z,95.41
2023-03-11T22:23:32.945Z,95.56
2023-03-11T22:26:00.928Z,95.48
2023-03-11T22:28:28.979Z,95.80
2023-03-11T22:30:57.001Z,95.32
2023-03-11T22:33:25.077Z,95.32
2023-03-11T22:35:57.196Z,94.75
2023-03-11T22:38:25.280Z,95.59
2023-03-11T22:40:53.353Z,95.62
2023-03-11T22:43:21.318Z,95.59
2023-03-11T22:45:49.442Z,95.74
2023-03-11T22:48:17.569Z,95.69
2023-03-11T22:50:45.730Z,96.15
2023-03-11T22:53:13.953Z,96.18
2023-03-11T22:55:45.379Z,96.40
2023-03-11T22:58:13.484Z,96.24
2023-03-11T23:00:48.471Z,95.06
2023-03-11T23:03:17.161Z,95.08
2023-03-11T23:05:47.067Z,95.75
2023-03-11T23:08:16.771Z,96.25
2023-03-11T23:10:46.025Z,96.17
2023-03-11T23:13:14.586Z,96.34
2023-03-11T23:15:43.644Z,95.87
2023-03-11T23:18:11.772Z,95.92
2023-03-11T23:20:41.545Z,95.79
2023-03-11T23:23:09.980Z,95.80
2023-03-11T23:25:38.124Z,96.82
2023-03-11T23:28:07.007Z,95.38
2023-03-11T23:30:35.126Z,96.06
2023-03-11T23:33:04.217Z,97.25
2023-03-11T23:35:32.616Z,96.45
2023-03-11T23:38:00.700Z,96.08
2023-03-11T23:40:28.714Z,96.83
2023-03-11T23:42:56.662Z,97.53
2023-03-11T23:45:24.609Z,96.43
2023-03-11T23:47:52.522Z,96.53
2023-03-11T23:50:20.389Z,97.37
2023-03-11T23:52:48.377Z,95.81
2023-03-11T23:55:16.247Z,96.35
2023-03-11T23:57:44.180Z,97.15
